createdAt,value
2023-05-05T00:00:50.963Z,0.98
2023-05-05T00:01:50.969Z,0.92
2023-05-05T00:02:50.945Z,0.95
2023-05-05T00:03:51.068Z,0.97
2023-05-05T00:04:50.967Z,0.96
2023-05-05T00:05:50.934Z,0.96
2023-05-05T00:06:50.961Z,0.95
2023-05-05T00:07:50.926Z,0.93
2023-05-05T00:08:50.941Z,0.96
2023-05-05T00:09:50.932Z,0.99
2023-05-05T00:10:50.924Z,0.89
2023-05-05T00:11:50.940Z,0.91
2023-05-05T00:12:50.974Z,0.95
2023-05-05T00:13:50.922Z,0.94
2023-05-05T00:14:50.903Z,0.91
2023-05-05T00:15:50.912Z,0.94
2023-05-05T00:16:50.916Z,0.92
2023-05-05T00:17:50.958Z,0.92
2023-05-05T00:18:50.930Z,0.93
2023-05-05T00:19:50.899Z,0.87
2023-05-05T00:20:50.944Z,0.92
2023-05-05T00:21:50.881Z,0.89
2023-05-05T00:22:50.890Z,0.92
2023-05-05T00:23:50.918Z,0.96
2023-05-05T00:24:50.889Z,0.95
2023-05-05T00:25:50.906Z,0.89
2023-05-05T00:26:50.865Z,0.92
2023-05-05T00:27:50.866Z,0.93
2023-05-05T00:28:50.860Z,0.98
2023-05-05T00:29:50.866Z,0.95
2023-05-05T00:30:50.956Z,0.91
2023-05-05T00:31:50.858Z,0.94
2023-05-05T00:32:50.906Z,0.94
2023-05-05T00:33:50.893Z,0.95
2023-05-05T00:34:50.864Z,0.96
2023-05-05T00:35:50.864Z,0.90
2023-05-05T00:36:50.864Z,0.96
2023-05-05T00:37:50.866Z,0.87
2023-05-05T00:38:50.850Z,0.94
2023-05-05T00:39:50.869Z,0.94
2023-05-05T00:40:50.894Z,0.93
2023-05-05T00:41:50.845Z,0.87
2023-05-05T00:42:50.956Z,0.95
2023-05-05T00:43:50.835Z,0.90
2023-05-05T00:44:50.832Z,0.90
2023-05-05T00:45:50.847Z,0.97
2023-05-05T00:46:50.922Z,0.94
2023-05-05T00:47:50.868Z,0.89
2023-05-05T00:48:50.908Z,0.92
2023-05-05T00:49:50.834Z,0.96
2023-05-05T00:50:50.880Z,0.93
2023-05-05T00:51:50.829Z,0.98
2023-05-05T00:52:50.825Z,0.89
2023-05-05T00:53:50.819Z,0.91
2023-05-05T00:54:50.829Z,0.90
2023-05-05T00:55:50.847Z,0.91
2023-05-05T00:56:50.841Z,0.97
2023-05-05T00:57:50.854Z,0.87
2023-05-05T00:58:50.854Z,0.90
2023-05-05T00:59:50.820Z,0.94
2023-05-05T01:00:50.831Z,0.94
2023-05-05T01:01:50.845Z,0.92
2023-05-05T01:02:50.969Z,0.90
2023-05-05T01:03:50.924Z,0.87
2023-05-05T01:04:50.821Z,0.89
2023-05-05T01:05:50.827Z,0.96
2023-05-05T01:06:50.860Z,0.92
2023-05-05T01:07:50.845Z,0.92
2023-05-05T01:08:50.846Z,0.86
2023-05-05T01:10:00.864Z,0.92
2023-05-05T01:10:51.825Z,0.91
2023-05-05T01:11:50.802Z,0.91
2023-05-05T01:12:50.855Z,0.93
2023-05-05T01:13:50.799Z,0.92
2023-05-05T01:14:50.792Z,0.96
2023-05-05T01:15:50.836Z,0.92
2023-05-05T01:16:50.778Z,0.95
2023-05-05T01:17:50.800Z,0.92
2023-05-05T01:18:50.767Z,0.91
2023-05-05T01:19:50.749Z,0.88
2023-05-05T01:20:50.753Z,0.90
2023-05-05T01:21:50.721Z,0.95
2023-05-05T01:22:50.743Z,0.99
2023-05-05T01:23:50.733Z,0.95
2023-05-05T01:24:50.713Z,0.91
2023-05-05T01:25:50.714Z,0.95
2023-05-05T01:26:50.690Z,0.97
2023-05-05T01:27:50.689Z,0.95
2023-05-05T01:28:50.697Z,0.93
2023-05-05T01:29:50.681Z,0.95
2023-05-05T01:30:50.684Z,0.94
2023-05-05T01:31:50.724Z,0.97
2023-05-05T01:32:50.711Z,0.94
2023-05-05T01:33:50.649Z,0.91
2023-05-05T01:34:50.656Z,0.91
2023-05-05T01:35:50.637Z,0.96
2023-05-05T01:36:50.632Z,0.90
2023-05-05T01:37:50.660Z,0.91
2023-05-05T01:38:50.622Z,0.90
2023-05-05T01:39:50.595Z,0.88
2023-05-05T01:40:50.614Z,0.92
2023-05-05T01:41:50.581Z,0.89
2023-05-05T01:42:50.610Z,0.87
2023-05-05T01:43:50.569Z,0.93
2023-05-05T01:44:50.614Z,0.91
2023-05-05T01:45:50.565Z,0.91
2023-05-05T01:46:50.568Z,0.92
2023-05-05T01:47:50.560Z,0.92
2023-05-05T01:48:50.567Z,0.92
2023-05-05T01:49:50.535Z,0.85
2023-05-05T01:50:50.536Z,0.88
2023-05-05T01:51:50.505Z,0.89
2023-05-05T01:52:50.518Z,0.94
2023-05-05T01:53:50.504Z,0.91
2023-05-05T01:54:50.535Z,0.96
2023-05-05T01:55:50.488Z,0.91
2023-05-05T01:56:50.492Z,0.92
2023-05-05T01:57:50.482Z,0.93
2023-05-05T01:58:50.497Z,0.86
2023-05-05T01:59:50.457Z,0.91
2023-05-05T02:00:50.458Z,0.95
2023-05-05T02:01:50.463Z,0.93
2023-05-05T02:02:50.533Z,0.90
2023-05-05T02:03:50.420Z,0.90
2023-05-05T02:04:50.415Z,0.91
2023-05-05T02:05:50.422Z,0.90
2023-05-05T02:06:50.426Z,0.91
2023-05-05T02:07:50.398Z,0.87
2023-05-05T02:08:50.409Z,0.95
2023-05-05T02:09:50.391Z,0.87
2023-05-05T02:10:50.417Z,0.88
2023-05-05T02:11:50.374Z,0.90
2023-05-05T02:12:50.402Z,0.90
2023-05-05T02:13:50.387Z,0.92
2023-05-05T02:14:50.407Z,0.92
2023-05-05T02:15:50.390Z,0.87
2023-05-05T02:16:50.335Z,0.96
2023-05-05T02:17:50.342Z,0.92
2023-05-05T02:18:50.347Z,0.88
2023-05-05T02:19:50.313Z,0.87
2023-05-05T02:20:50.326Z,0.88
2023-05-05T02:21:50.294Z,0.94
2023-05-05T02:22:50.291Z,0.93
2023-05-05T02:23:50.290Z,0.92
2023-05-05T02:24:50.298Z,0.93
2023-05-05T02:25:50.282Z,0.94
2023-05-05T02:26:50.290Z,0.88
2023-05-05T02:27:50.322Z,0.93
2023-05-05T02:28:50.337Z,0.90
2023-05-05T02:29:50.324Z,0.93
2023-05-05T02:30:50.306Z,0.93
2023-05-05T02:31:50.337Z,0.92
2023-05-05T02:32:50.314Z,0.93
2023-05-05T02:33:50.318Z,0.92
2023-05-05T02:34:50.316Z,0.93
2023-05-05T02:35:50.305Z,0.89
2023-05-05T02:36:50.319Z,0.88
2023-05-05T02:37:50.311Z,0.87
2023-05-05T02:38:50.309Z,0.93
2023-05-05T02:39:50.312Z,0.85
2023-05-05T02:40:50.348Z,0.89
2023-05-05T02:41:50.318Z,0.86
2023-05-05T02:42:50.485Z,0.90
2023-05-05T02:43:50.318Z,0.91
2023-05-05T02:44:50.316Z,0.93
2023-05-05T02:45:50.346Z,0.87
2023-05-05T02:46:50.397Z,0.85
2023-05-05T02:47:50.496Z,0.86
2023-05-05T02:48:50.351Z,0.90
2023-05-05T02:49:50.353Z,0.92
2023-05-05T02:50:50.383Z,0.93
2023-05-05T02:51:50.360Z,0.93
2023-05-05T02:52:50.380Z,0.88
2023-05-05T02:53:50.379Z,0.91
2023-05-05T02:54:50.388Z,0.93
2023-05-05T02:55:50.383Z,0.84
2023-05-05T02:56:50.399Z,0.86
2023-05-05T02:57:50.405Z,0.86
2023-05-05T02:58:50.387Z,0.90
2023-05-05T02:59:50.425Z,0.94
2023-05-05T03:00:50.428Z,0.90
2023-05-05T03:01:50.492Z,0.91
2023-05-05T03:02:50.498Z,0.89
2023-05-05T03:03:50.591Z,0.88
2023-05-05T03:04:50.418Z,0.83
2023-05-05T03:05:50.449Z,0.87
2023-05-05T03:06:50.436Z,0.88
2023-05-05T03:07:50.481Z,0.89
2023-05-05T03:08:50.479Z,0.85
2023-05-05T03:09:50.471Z,0.88
2023-05-05T03:10:50.495Z,0.90
2023-05-05T03:11:50.471Z,0.83
2023-05-05T03:12:50.525Z,0.87
2023-05-05T03:13:50.478Z,0.88
2023-05-05T03:14:50.482Z,0.84
2023-05-05T03:15:50.642Z,0.90
2023-05-05T03:16:50.537Z,0.89
2023-05-05T03:17:50.608Z,0.84
2023-05-05T03:18:50.498Z,0.90
2023-05-05T03:19:50.503Z,0.91
2023-05-05T03:20:50.514Z,0.84
2023-05-05T03:21:50.518Z,0.90
2023-05-05T03:22:50.563Z,0.90
2023-05-05T03:23:50.539Z,0.85
2023-05-05T03:24:50.544Z,0.90
2023-05-05T03:25:50.596Z,0.88
2023-05-05T03:26:50.601Z,0.89
2023-05-05T03:27:50.612Z,0.91
2023-05-05T03:28:50.620Z,0.87
2023-05-05T03:29:50.596Z,0.89
2023-05-05T03:30:50.669Z,0.89
2023-05-05T03:31:50.682Z,0.87
2023-05-05T03:32:50.699Z,0.90
2023-05-05T03:33:50.637Z,0.89
2023-05-05T03:34:50.634Z,0.86
2023-05-05T03:35:50.678Z,0.90
2023-05-05T03:36:50.676Z,0.90
2023-05-05T03:37:50.658Z,0.90
2023-05-05T03:38:50.663Z,0.89
2023-05-05T03:39:50.680Z,0.88
2023-05-05T03:40:50.712Z,0.84
2023-05-05T03:41:50.680Z,0.89
2023-05-05T03:42:50.697Z,0.89
2023-05-05T03:43:50.679Z,0.87
2023-05-05T03:44:50.690Z,0.84
2023-05-05T03:45:50.753Z,0.88
2023-05-05T03:46:50.687Z,0.90
2023-05-05T03:47:50.762Z,0.89
2023-05-05T03:48:50.696Z,0.84
2023-05-05T03:49:50.707Z,0.88
2023-05-05T03:50:50.721Z,0.89
2023-05-05T03:51:50.716Z,0.88
2023-05-05T03:52:50.733Z,0.84
2023-05-05T03:53:50.735Z,0.87
2023-05-05T03:54:50.746Z,0.86
2023-05-05T03:55:50.739Z,0.86
2023-05-05T03:56:50.786Z,0.85
2023-05-05T03:57:50.753Z,0.86
2023-05-05T03:58:50.770Z,0.86
2023-05-05T03:59:50.765Z,0.88
2023-05-05T04:00:50.782Z,0.85
2023-05-05T04:01:50.786Z,0.86
2023-05-05T04:02:50.866Z,0.87
2023-05-05T04:03:50.865Z,0.87
2023-05-05T04:04:50.813Z,0.88
2023-05-05T04:05:50.827Z,0.86
2023-05-05T04:06:50.860Z,0.86
2023-05-05T04:07:50.842Z,0.87
2023-05-05T04:08:50.854Z,0.86
2023-05-05T04:09:50.901Z,0.88
2023-05-05T04:10:50.851Z,0.83
2023-05-05T04:11:50.860Z,0.84
2023-05-05T04:12:50.914Z,0.88
2023-05-05T04:13:50.896Z,0.88
2023-05-05T04:14:50.867Z,0.87
2023-05-05T04:15:50.933Z,0.86
2023-05-05T04:16:50.897Z,0.89
2023-05-05T04:17:50.991Z,0.83
2023-05-05T04:18:50.903Z,0.87
2023-05-05T04:19:50.919Z,0.89
2023-05-05T04:20:50.944Z,0.84
2023-05-05T04:21:50.939Z,0.87
2023-05-05T04:22:52.588Z,0.83
2023-05-05T04:23:50.956Z,0.88
2023-05-05T04:24:50.958Z,0.87
2023-05-05T04:25:50.981Z,0.86
2023-05-05T04:26:50.982Z,0.86
2023-05-05T04:27:51.422Z,0.84
2023-05-05T04:28:51.028Z,0.84
2023-05-05T04:29:50.992Z,0.87
2023-05-05T04:30:51.013Z,0.87
2023-05-05T04:31:51.048Z,0.85
2023-05-05T04:32:51.135Z,0.83
2023-05-05T04:33:51.036Z,0.88
2023-05-05T04:34:51.039Z,0.86
2023-05-05T04:35:51.073Z,0.85
2023-05-05T04:36:51.069Z,0.82
2023-05-05T04:37:51.109Z,0.87
2023-05-05T04:38:51.121Z,0.86
2023-05-05T04:39:51.087Z,0.87
2023-05-05T04:40:51.119Z,0.86
2023-05-05T04:41:51.107Z,0.85
2023-05-05T04:42:51.094Z,0.85
2023-05-05T04:43:51.091Z,0.86
2023-05-05T04:44:51.126Z,0.86
2023-05-05T04:45:51.097Z,0.85
2023-05-05T04:46:51.251Z,0.83
2023-05-05T04:47:51.178Z,0.84
2023-05-05T04:48:51.134Z,0.82
2023-05-05T04:49:51.177Z,0.87
2023-05-05T04:50:51.152Z,0.85
2023-05-05T04:51:51.191Z,0.86
2023-05-05T04:52:52.637Z,0.82
2023-05-05T04:53:51.201Z,0.81
2023-05-05T04:54:51.222Z,0.83
2023-05-05T04:55:51.207Z,0.84
2023-05-05T04:56:51.203Z,0.84
2023-05-05T04:57:51.255Z,0.83
2023-05-05T04:58:51.216Z,0.82
2023-05-05T04:59:51.239Z,0.88
2023-05-05T05:00:51.231Z,0.84
2023-05-05T05:01:51.290Z,0.82
2023-05-05T05:02:51.328Z,0.85
2023-05-05T05:03:51.302Z,0.84
2023-05-05T05:04:51.277Z,0.87
2023-05-05T05:05:51.285Z,0.85
2023-05-05T05:06:51.299Z,0.81
2023-05-05T05:07:51.302Z,0.84
2023-05-05T05:08:51.319Z,0.84
2023-05-05T05:09:51.331Z,0.85
2023-05-05T05:10:51.318Z,0.83
2023-05-05T05:11:51.329Z,0.83
2023-05-05T05:12:51.374Z,0.81
2023-05-05T05:13:51.351Z,0.80
2023-05-05T05:14:51.334Z,0.80
2023-05-05T05:15:51.339Z,0.83
2023-05-05T05:16:51.430Z,0.83
2023-05-05T05:17:51.593Z,0.82
2023-05-05T05:18:51.357Z,0.82
2023-05-05T05:19:51.356Z,0.84
2023-05-05T05:20:51.368Z,0.79
2023-05-05T05:21:51.404Z,0.80
2023-05-05T05:22:51.408Z,0.79
2023-05-05T05:23:51.387Z,0.82
2023-05-05T05:24:51.388Z,0.83
2023-05-05T05:25:51.433Z,0.83
2023-05-05T05:26:51.461Z,0.78
2023-05-05T05:28:02.273Z,0.78
2023-05-05T05:28:52.411Z,0.78
2023-05-05T05:29:51.396Z,0.78
2023-05-05T05:30:51.493Z,0.78
2023-05-05T05:31:51.445Z,0.82
2023-05-05T05:32:51.479Z,0.81
2023-05-05T05:33:51.380Z,0.82
2023-05-05T05:34:51.363Z,0.83
2023-05-05T05:35:51.354Z,0.83
2023-05-05T05:36:51.388Z,0.78
2023-05-05T05:37:51.348Z,0.82
2023-05-05T05:38:51.414Z,0.82
2023-05-05T05:39:51.370Z,0.82
2023-05-05T05:40:51.332Z,0.87
2023-05-05T05:41:51.933Z,0.88
2023-05-05T05:42:51.306Z,0.97
2023-05-05T05:43:51.391Z,0.92
2023-05-05T05:44:51.275Z,1.03
2023-05-05T05:45:51.309Z,1.03
2023-05-05T05:46:51.333Z,1.06
2023-05-05T05:47:51.314Z,1.12
2023-05-05T05:48:51.379Z,1.08
2023-05-05T05:49:51.240Z,1.11
2023-05-05T05:50:51.260Z,1.17
2023-05-05T05:51:51.221Z,1.11
2023-05-05T05:52:51.218Z,1.19
2023-05-05T05:53:51.232Z,1.18
2023-05-05T05:54:51.254Z,1.20
2023-05-05T05:55:51.297Z,1.20
2023-05-05T05:56:51.343Z,1.16
2023-05-05T05:57:51.354Z,1.24
2023-05-05T05:58:51.428Z,1.22
2023-05-05T05:59:51.458Z,1.18
2023-05-05T06:00:51.450Z,1.23
2023-05-05T06:01:51.457Z,1.23
2023-05-05T06:02:51.592Z,1.23
2023-05-05T06:03:51.533Z,1.26
2023-05-05T06:04:51.616Z,1.22
2023-05-05T06:05:51.555Z,1.24
2023-05-05T06:06:51.943Z,1.27
2023-05-05T06:07:51.612Z,1.29
2023-05-05T06:08:51.601Z,1.31
2023-05-05T06:09:51.578Z,1.23
2023-05-05T06:10:51.654Z,1.30
2023-05-05T06:11:51.626Z,1.31
2023-05-05T06:12:51.683Z,1.27
2023-05-05T06:13:51.637Z,1.22
2023-05-05T06:14:51.615Z,1.29
2023-05-05T06:15:51.671Z,1.33
2023-05-05T06:16:51.610Z,1.25
2023-05-05T06:17:51.665Z,1.26
2023-05-05T06:18:51.605Z,1.30
2023-05-05T06:19:52.978Z,1.23
2023-05-05T06:20:51.596Z,1.32
2023-05-05T06:21:51.608Z,1.25
2023-05-05T06:22:51.574Z,1.32
2023-05-05T06:23:51.592Z,1.31
2023-05-05T06:24:51.572Z,1.27
2023-05-05T06:25:51.568Z,1.26
2023-05-05T06:26:51.547Z,1.24
2023-05-05T06:27:51.538Z,1.26
2023-05-05T06:28:51.955Z,1.27
2023-05-05T06:29:51.517Z,1.25
2023-05-05T06:30:51.511Z,1.28
2023-05-05T06:31:51.540Z,1.24
2023-05-05T06:32:51.544Z,1.28
2023-05-05T06:33:51.506Z,1.24
2023-05-05T06:34:51.494Z,1.24
2023-05-05T06:35:51.524Z,1.27
2023-05-05T06:36:51.488Z,1.17
2023-05-05T06:37:51.460Z,1.23
2023-05-05T06:38:51.962Z,1.24
2023-05-05T06:39:51.517Z,1.28
2023-05-05T06:40:51.428Z,1.33
2023-05-05T06:41:51.419Z,1.38
2023-05-05T06:42:51.409Z,1.41
2023-05-05T06:43:51.403Z,1.53
2023-05-05T06:44:51.412Z,1.59
2023-05-05T06:45:51.399Z,1.68
2023-05-05T06:46:51.468Z,1.73
2023-05-05T06:47:51.408Z,1.80
2023-05-05T06:48:51.388Z,1.93
2023-05-05T06:49:51.391Z,1.97
2023-05-05T06:50:51.388Z,2.05
2023-05-05T06:51:51.410Z,2.18
2023-05-05T06:52:51.434Z,2.26
2023-05-05T06:53:51.329Z,2.28
2023-05-05T06:54:51.352Z,2.30
2023-05-05T06:55:51.319Z,2.32
2023-05-05T06:56:51.308Z,2.45
2023-05-05T06:57:51.329Z,2.43
2023-05-05T06:58:51.337Z,2.16
2023-05-05T06:59:51.295Z,1.85
2023-05-05T07:00:51.324Z,1.63
2023-05-05T07:01:51.296Z,1.30
2023-05-05T07:02:51.396Z,1.14
2023-05-05T07:03:51.299Z,1.13
2023-05-05T07:04:51.246Z,1.09
2023-05-05T07:05:51.257Z,1.06
2023-05-05T07:06:51.267Z,1.09
2023-05-05T07:07:51.242Z,1.11
2023-05-05T07:08:51.300Z,1.14
2023-05-05T07:09:51.223Z,1.18
2023-05-05T07:10:51.222Z,1.22
2023-05-05T07:11:51.233Z,1.29
2023-05-05T07:12:51.237Z,1.33
2023-05-05T07:13:51.188Z,1.37
2023-05-05T07:14:51.372Z,1.41
2023-05-05T07:15:51.184Z,1.45
2023-05-05T07:16:51.257Z,1.47
2023-05-05T07:17:51.231Z,1.50
2023-05-05T07:18:51.215Z,1.51
2023-05-05T07:19:51.149Z,1.51
2023-05-05T07:20:51.137Z,1.50
2023-05-05T07:21:51.132Z,1.55
2023-05-05T07:22:51.162Z,1.56
2023-05-05T07:23:51.149Z,1.52
2023-05-05T07:24:51.765Z,1.52
2023-05-05T07:25:51.180Z,1.48
2023-05-05T07:26:51.134Z,1.44
2023-05-05T07:27:51.144Z,1.38
2023-05-05T07:28:51.481Z,1.37
2023-05-05T07:29:51.155Z,1.39
2023-05-05T07:30:51.191Z,1.30
2023-05-05T07:31:51.302Z,1.35
2023-05-05T07:32:51.294Z,1.30
2023-05-05T07:33:51.481Z,1.25
2023-05-05T07:34:51.286Z,0.97
2023-05-05T07:35:52.015Z,0.89
2023-05-05T07:36:51.426Z,0.90
2023-05-05T07:37:51.284Z,0.90
2023-05-05T07:38:51.305Z,0.77
2023-05-05T07:39:51.327Z,0.61
2023-05-05T07:40:51.393Z,0.59
2023-05-05T07:41:51.367Z,0.50
2023-05-05T07:42:51.366Z,0.50
2023-05-05T07:43:51.381Z,0.49
2023-05-05T07:44:51.414Z,0.50
2023-05-05T07:45:51.470Z,0.49
2023-05-05T07:46:51.484Z,0.52
2023-05-05T07:47:51.495Z,0.54
2023-05-05T07:48:51.501Z,0.50
2023-05-05T07:49:51.512Z,0.49
2023-05-05T07:50:51.518Z,0.50
2023-05-05T07:51:51.555Z,0.51
2023-05-05T07:52:56.333Z,0.50
2023-05-05T07:53:52.560Z,0.50
2023-05-05T07:54:51.515Z,0.50
2023-05-05T07:55:51.521Z,0.51
2023-05-05T07:56:51.593Z,0.46
2023-05-05T07:57:51.482Z,0.48
2023-05-05T07:58:51.541Z,0.52
2023-05-05T07:59:51.500Z,0.52
2023-05-05T08:00:51.506Z,0.50
2023-05-05T08:01:53.125Z,0.50
2023-05-05T08:02:51.592Z,0.50
2023-05-05T08:03:51.577Z,0.51
2023-05-05T08:04:51.442Z,0.54
2023-05-05T08:05:51.860Z,0.55
2023-05-05T08:06:51.443Z,0.56
2023-05-05T08:07:51.537Z,0.61
2023-05-05T08:08:51.465Z,0.54
2023-05-05T08:09:51.414Z,0.54
2023-05-05T08:10:51.450Z,0.53
2023-05-05T08:11:51.404Z,0.55
2023-05-05T08:12:51.564Z,0.54
2023-05-05T08:13:51.376Z,0.59
2023-05-05T08:14:51.501Z,0.62
2023-05-05T08:15:51.422Z,0.65
2023-05-05T08:16:51.366Z,0.70
2023-05-05T08:17:51.474Z,0.71
2023-05-05T08:18:51.365Z,0.76
2023-05-05T08:19:51.360Z,0.79
2023-05-05T08:20:51.362Z,0.88
2023-05-05T08:21:51.334Z,0.89
2023-05-05T08:22:51.361Z,0.95
2023-05-05T08:23:51.307Z,1.02
2023-05-05T08:24:51.327Z,1.00
2023-05-05T08:25:51.318Z,0.91
2023-05-05T08:26:51.410Z,0.97
2023-05-05T08:27:51.419Z,0.98
2023-05-05T08:28:51.384Z,0.93
2023-05-05T08:29:51.286Z,0.96
2023-05-05T08:30:51.278Z,0.98
2023-05-05T08:31:51.294Z,1.02
2023-05-05T08:32:51.300Z,1.05
2023-05-05T08:33:51.271Z,1.00
2023-05-05T08:34:51.271Z,0.99
2023-05-05T08:35:51.239Z,1.01
2023-05-05T08:36:51.233Z,1.06
2023-05-05T08:37:51.256Z,1.05
2023-05-05T08:38:51.221Z,1.03
2023-05-05T08:39:51.514Z,1.11
2023-05-05T08:40:51.215Z,1.15
2023-05-05T08:41:51.218Z,1.16
2023-05-05T08:42:51.217Z,1.22
2023-05-05T08:43:51.210Z,1.37
2023-05-05T08:44:51.581Z,1.40
2023-05-05T08:45:51.189Z,1.42
2023-05-05T08:46:51.204Z,1.52
2023-05-05T08:47:51.224Z,1.68
2023-05-05T08:48:51.166Z,1.77
2023-05-05T08:49:51.154Z,1.85
2023-05-05T08:50:51.174Z,1.89
2023-05-05T08:51:51.141Z,1.96
2023-05-05T08:52:51.369Z,2.04
2023-05-05T08:53:51.120Z,2.18
2023-05-05T08:54:51.117Z,2.31
2023-05-05T08:55:51.133Z,2.52
2023-05-05T08:56:51.099Z,2.53
2023-05-05T08:57:51.153Z,2.71
2023-05-05T08:58:51.088Z,2.79
2023-05-05T08:59:51.086Z,2.82
2023-05-05T09:00:51.262Z,2.95
2023-05-05T09:01:51.055Z,3.07
2023-05-05T09:02:51.128Z,3.29
2023-05-05T09:03:51.048Z,3.34
2023-05-05T09:04:51.056Z,3.49
2023-05-05T09:05:51.030Z,3.54
2023-05-05T09:06:51.033Z,3.65
2023-05-05T09:07:51.084Z,3.88
2023-05-05T09:08:51.146Z,4.18
2023-05-05T09:09:51.209Z,4.48
2023-05-05T09:10:51.240Z,4.50
2023-05-05T09:11:51.290Z,4.68
2023-05-05T09:12:51.603Z,4.73
2023-05-05T09:13:51.398Z,4.75
2023-05-05T09:14:51.432Z,4.68
2023-05-05T09:15:51.568Z,4.75
2023-05-05T09:16:51.677Z,4.76
2023-05-05T09:17:51.596Z,4.89
2023-05-05T09:18:51.617Z,4.99
2023-05-05T09:19:51.708Z,5.12
2023-05-05T09:20:51.713Z,5.27
2023-05-05T09:21:51.770Z,5.31
2023-05-05T09:22:51.782Z,5.47
2023-05-05T09:23:51.829Z,5.54
2023-05-05T09:24:51.861Z,5.64
2023-05-05T09:25:51.894Z,5.66
2023-05-05T09:26:51.941Z,5.64
2023-05-05T09:27:51.966Z,5.58
2023-05-05T09:28:52.045Z,5.72
2023-05-05T09:29:52.060Z,6.04
2023-05-05T09:30:52.070Z,5.90
2023-05-05T09:31:52.064Z,5.03
2023-05-05T09:32:52.240Z,4.87
2023-05-05T09:33:52.168Z,4.17
2023-05-05T09:34:52.550Z,4.23
2023-05-05T09:35:52.212Z,4.22
2023-05-05T09:36:52.249Z,4.19
2023-05-05T09:37:52.288Z,4.04
2023-05-05T09:38:52.317Z,4.05
2023-05-05T09:39:52.360Z,3.94
2023-05-05T09:40:52.394Z,3.92
2023-05-05T09:41:52.415Z,4.09
2023-05-05T09:42:52.469Z,4.14
2023-05-05T09:43:52.715Z,4.06
2023-05-05T09:44:52.535Z,4.08
2023-05-05T09:45:52.672Z,3.90
2023-05-05T09:46:52.712Z,3.92
2023-05-05T09:47:56.520Z,3.97
2023-05-05T09:48:53.695Z,3.98
2023-05-05T09:49:52.650Z,3.88
2023-05-05T09:50:52.658Z,3.73
2023-05-05T09:51:52.620Z,3.64
2023-05-05T09:52:52.633Z,3.65
2023-05-05T09:53:52.620Z,3.62
2023-05-05T09:54:52.721Z,3.51
2023-05-05T09:55:52.644Z,3.36
2023-05-05T09:56:52.580Z,3.20
2023-05-05T09:57:52.595Z,3.18
2023-05-05T09:58:52.678Z,3.14
2023-05-05T09:59:52.715Z,3.08
2023-05-05T10:00:52.773Z,3.15
2023-05-05T10:01:52.890Z,3.09
2023-05-05T10:02:52.914Z,3.07
2023-05-05T10:03:53.002Z,2.91
2023-05-05T10:04:53.082Z,2.97
2023-05-05T10:05:53.072Z,2.91
2023-05-05T10:06:53.147Z,2.79
2023-05-05T10:07:53.205Z,2.60
2023-05-05T10:08:53.254Z,2.55
2023-05-05T10:09:53.310Z,2.44
2023-05-05T10:10:53.383Z,2.43
2023-05-05T10:11:53.412Z,2.45
2023-05-05T10:12:53.519Z,2.39
2023-05-05T10:13:53.550Z,2.35
2023-05-05T10:14:53.633Z,2.43
2023-05-05T10:15:53.705Z,2.28
2023-05-05T10:16:53.694Z,2.20
2023-05-05T10:18:06.117Z,2.14
2023-05-05T10:18:54.749Z,2.14
2023-05-05T10:19:53.750Z,2.08
2023-05-05T10:20:53.809Z,1.83
2023-05-05T10:21:53.740Z,1.46
2023-05-05T10:22:53.719Z,1.39
2023-05-05T10:23:53.751Z,1.46
2023-05-05T10:24:53.778Z,1.38
2023-05-05T10:25:53.826Z,1.30
2023-05-05T10:26:53.871Z,1.36
2023-05-05T10:27:54.034Z,1.36
2023-05-05T10:28:53.946Z,1.54
2023-05-05T10:29:53.958Z,1.62
2023-05-05T10:30:53.974Z,1.38
2023-05-05T10:31:54.069Z,1.27
2023-05-05T10:33:03.464Z,1.25
2023-05-05T10:33:55.168Z,1.16
2023-05-05T10:34:54.080Z,1.26
2023-05-05T10:35:54.051Z,1.29
2023-05-05T10:36:54.257Z,1.33
2023-05-05T10:37:54.004Z,1.29
2023-05-05T10:38:53.986Z,1.45
2023-05-05T10:39:53.988Z,1.16
2023-05-05T10:40:53.990Z,1.22
2023-05-05T10:41:53.983Z,0.99
2023-05-05T10:42:54.082Z,1.08
2023-05-05T10:43:53.960Z,1.28
2023-05-05T10:44:54.141Z,1.31
2023-05-05T10:45:54.084Z,1.35
2023-05-05T10:46:53.933Z,1.34
2023-05-05T10:47:53.947Z,1.62
2023-05-05T10:48:53.981Z,1.72
2023-05-05T10:49:54.070Z,1.46
2023-05-05T10:50:53.927Z,1.54
2023-05-05T10:51:54.012Z,1.22
2023-05-05T10:52:54.098Z,1.35
2023-05-05T10:53:54.057Z,1.41
2023-05-05T10:54:54.045Z,1.51
2023-05-05T10:55:54.044Z,1.23
2023-05-05T10:56:54.088Z,1.20
2023-05-05T10:57:54.089Z,0.58
2023-05-05T10:59:00.287Z,0.51
2023-05-05T10:59:55.131Z,0.38
2023-05-05T11:00:54.156Z,0.39
2023-05-05T11:01:54.101Z,0.34
2023-05-05T11:02:54.142Z,0.45
2023-05-05T11:03:54.133Z,0.36
2023-05-05T11:04:54.102Z,0.34
2023-05-05T11:05:54.089Z,0.34
2023-05-05T11:06:54.077Z,0.34
2023-05-05T11:07:54.106Z,0.39
2023-05-05T11:08:54.115Z,0.50
2023-05-05T11:09:54.066Z,0.51
2023-05-05T11:10:54.087Z,0.56
2023-05-05T11:11:54.033Z,0.50
2023-05-05T11:12:54.108Z,0.65
2023-05-05T11:13:54.010Z,0.63
2023-05-05T11:14:54.063Z,0.55
2023-05-05T11:15:54.130Z,0.51
2023-05-05T11:16:54.039Z,0.73
2023-05-05T11:17:54.100Z,1.01
2023-05-05T11:18:53.995Z,1.29
2023-05-05T11:19:53.983Z,1.43
2023-05-05T11:20:53.975Z,1.67
2023-05-05T11:21:53.990Z,1.84
2023-05-05T11:22:54.001Z,1.94
2023-05-05T11:23:54.069Z,2.05
2023-05-05T11:24:54.077Z,2.16
2023-05-05T11:25:54.048Z,2.34
2023-05-05T11:26:54.076Z,2.37
2023-05-05T11:27:54.102Z,2.56
2023-05-05T11:28:54.159Z,2.49
2023-05-05T11:29:54.210Z,2.42
2023-05-05T11:30:54.229Z,2.25
2023-05-05T11:31:54.218Z,2.34
2023-05-05T11:32:54.265Z,2.32
2023-05-05T11:33:54.274Z,2.44
2023-05-05T11:34:54.333Z,2.55
2023-05-05T11:35:54.353Z,2.66
2023-05-05T11:36:54.427Z,2.69
2023-05-05T11:37:54.420Z,2.84
2023-05-05T11:38:54.485Z,2.83
2023-05-05T11:39:54.513Z,3.07
2023-05-05T11:40:54.566Z,3.11
2023-05-05T11:41:54.599Z,3.10
2023-05-05T11:42:54.639Z,3.21
2023-05-05T11:43:54.709Z,3.32
2023-05-05T11:44:54.736Z,3.53
2023-05-05T11:45:54.837Z,3.75
2023-05-05T11:46:54.837Z,3.75
2023-05-05T11:47:55.059Z,3.86
2023-05-05T11:48:54.949Z,3.98
2023-05-05T11:49:54.995Z,4.02
2023-05-05T11:50:55.029Z,4.17
2023-05-05T11:51:55.088Z,4.11
2023-05-05T11:52:55.127Z,4.20
2023-05-05T11:53:56.015Z,4.28
2023-05-05T11:54:55.252Z,4.30
2023-05-05T11:55:55.306Z,4.27
2023-05-05T11:56:55.346Z,4.25
2023-05-05T11:57:55.421Z,4.35
2023-05-05T11:58:55.487Z,4.47
2023-05-05T11:59:55.498Z,4.42
2023-05-05T12:00:55.580Z,4.66
2023-05-05T12:01:55.609Z,4.58
2023-05-05T12:02:55.831Z,4.51
2023-05-05T12:03:55.881Z,4.54
2023-05-05T12:04:55.910Z,4.57
2023-05-05T12:05:55.817Z,4.55
2023-05-05T12:06:55.882Z,4.68
2023-05-05T12:07:55.938Z,4.76
2023-05-05T12:08:55.989Z,4.75
2023-05-05T12:09:56.055Z,4.83
2023-05-05T12:10:56.122Z,4.66
2023-05-05T12:11:56.163Z,4.76
2023-05-05T12:12:56.436Z,4.81
2023-05-05T12:13:56.274Z,4.88
2023-05-05T12:14:56.348Z,4.75
2023-05-05T12:15:56.378Z,4.79
2023-05-05T12:16:56.454Z,4.77
2023-05-05T12:17:56.592Z,4.81
2023-05-05T12:18:56.566Z,4.81
2023-05-05T12:19:56.606Z,4.83
2023-05-05T12:20:56.685Z,4.87
2023-05-05T12:21:56.713Z,4.82
2023-05-05T12:22:56.804Z,4.75
2023-05-05T12:23:56.835Z,4.85
2023-05-05T12:24:56.894Z,4.86
2023-05-05T12:25:56.960Z,4.82
2023-05-05T12:26:57.005Z,4.96
2023-05-05T12:27:57.067Z,4.84
2023-05-05T12:28:57.188Z,4.93
2023-05-05T12:29:57.199Z,4.87
2023-05-05T12:30:57.329Z,4.95
2023-05-05T12:31:57.327Z,4.85
2023-05-05T12:32:57.437Z,4.83
2023-05-05T12:33:57.651Z,4.87
2023-05-05T12:34:57.562Z,4.83
2023-05-05T12:35:57.556Z,4.80
2023-05-05T12:36:57.591Z,4.74
2023-05-05T12:37:57.641Z,4.63
2023-05-05T12:38:57.719Z,4.72
2023-05-05T12:39:57.777Z,4.73
2023-05-05T12:40:57.837Z,4.62
2023-05-05T12:41:57.898Z,4.53
2023-05-05T12:42:57.947Z,4.36
2023-05-05T12:43:58.037Z,4.34
2023-05-05T12:44:58.042Z,4.18
2023-05-05T12:45:58.182Z,4.06
2023-05-05T12:46:58.210Z,4.02
2023-05-05T12:47:58.289Z,4.12
2023-05-05T12:48:58.294Z,4.07
2023-05-05T12:49:58.390Z,4.01
2023-05-05T12:50:58.401Z,3.90
2023-05-05T12:51:58.489Z,3.64
2023-05-05T12:52:58.516Z,3.57
2023-05-05T12:53:58.576Z,3.60
2023-05-05T12:54:58.702Z,3.60
2023-05-05T12:55:58.705Z,3.61
2023-05-05T12:56:58.829Z,3.66
2023-05-05T12:57:58.815Z,3.43
2023-05-05T12:58:58.879Z,3.27
2023-05-05T12:59:58.959Z,3.39
2023-05-05T13:00:59.155Z,3.39
2023-05-05T13:01:59.206Z,3.40
2023-05-05T13:02:59.254Z,3.43
2023-05-05T13:03:59.221Z,3.17
2023-05-05T13:04:59.265Z,3.11
2023-05-05T13:05:59.273Z,3.10
2023-05-05T13:06:59.364Z,3.07
2023-05-05T13:07:59.416Z,3.12
2023-05-05T13:08:59.465Z,3.05
2023-05-05T13:09:59.524Z,3.17
2023-05-05T13:10:59.612Z,3.28
2023-05-05T13:11:59.683Z,3.20
2023-05-05T13:12:59.773Z,3.28
2023-05-05T13:13:59.777Z,3.24
2023-05-05T13:14:59.833Z,3.31
2023-05-05T13:15:59.923Z,3.33
2023-05-05T13:17:00.019Z,3.28
2023-05-05T13:18:00.110Z,3.19
2023-05-05T13:19:00.077Z,3.22